createdAt,value
2023-02-28T00:00:44.248Z,0.00
2023-02-28T00:01:44.271Z,0.00
2023-02-28T00:02:44.238Z,0.00
2023-02-28T00:03:44.351Z,0.00
2023-02-28T00:04:44.205Z,0.00
2023-02-28T00:05:44.187Z,0.00
2023-02-28T00:06:44.200Z,0.00
2023-02-28T00:07:44.176Z,0.00
2023-02-28T00:08:44.146Z,0.00
2023-02-28T00:09:44.153Z,0.00
2023-02-28T00:10:44.146Z,0.00
2023-02-28T00:11:44.118Z,0.00
2023-02-28T00:12:44.122Z,0.00
2023-02-28T00:13:44.085Z,0.00
2023-02-28T00:14:44.097Z,0.00
2023-02-28T00:15:44.067Z,0.00
2023-02-28T00:16:44.097Z,0.00
2023-02-28T00:17:44.066Z,0.00
2023-02-28T00:18:44.047Z,0.00
2023-02-28T00:19:44.030Z,0.00
2023-02-28T00:20:44.037Z,0.00
2023-02-28T00:21:44.032Z,0.00
2023-02-28T00:22:43.995Z,0.00
2023-02-28T00:23:43.966Z,0.00
2023-02-28T00:24:43.970Z,0.00
2023-02-28T00:25:43.960Z,0.00
2023-02-28T00:26:43.915Z,0.00
2023-02-28T00:27:43.918Z,0.00
2023-02-28T00:28:43.938Z,0.00
2023-02-28T00:29:43.904Z,0.00
2023-02-28T00:30:43.942Z,0.00
2023-02-28T00:31:43.893Z,0.00
2023-02-28T00:32:43.846Z,0.00
2023-02-28T00:33:43.836Z,0.00
2023-02-28T00:34:43.879Z,0.00
2023-02-28T00:35:43.827Z,0.00
2023-02-28T00:36:43.791Z,0.00
2023-02-28T00:37:43.800Z,0.00
2023-02-28T00:38:43.802Z,0.00
2023-02-28T00:39:43.751Z,0.00
2023-02-28T00:40:43.743Z,0.00
2023-02-28T00:41:43.751Z,0.00
2023-02-28T00:42:43.744Z,0.00
2023-02-28T00:43:43.746Z,0.00
2023-02-28T00:44:43.734Z,0.00
2023-02-28T00:45:43.679Z,0.00
2023-02-28T00:46:43.678Z,0.00
2023-02-28T00:47:43.652Z,0.00
2023-02-28T00:48:43.657Z,0.00
2023-02-28T00:49:43.657Z,0.00
2023-02-28T00:50:43.627Z,0.00
2023-02-28T00:51:43.621Z,0.00
2023-02-28T00:52:43.612Z,0.00
2023-02-28T00:53:43.603Z,0.00
2023-02-28T00:54:43.569Z,0.00
2023-02-28T00:55:43.568Z,0.00
2023-02-28T00:56:43.543Z,0.00
2023-02-28T00:57:43.529Z,0.00
2023-02-28T00:58:43.537Z,0.00
2023-02-28T00:59:43.519Z,0.00
2023-02-28T01:00:43.502Z,0.00
2023-02-28T01:01:43.517Z,0.00
2023-02-28T01:02:43.469Z,0.00
2023-02-28T01:03:43.443Z,0.00
2023-02-28T01:04:43.486Z,0.00
2023-02-28T01:05:43.431Z,0.00
2023-02-28T01:06:43.410Z,0.00
2023-02-28T01:07:43.407Z,0.00
2023-02-28T01:08:43.425Z,0.00
2023-02-28T01:09:43.394Z,0.00
2023-02-28T01:10:43.422Z,0.00
2023-02-28T01:11:43.362Z,0.00
2023-02-28T01:12:43.340Z,0.00
2023-02-28T01:13:43.357Z,0.00
2023-02-28T01:14:43.309Z,0.00
2023-02-28T01:15:43.312Z,0.00
2023-02-28T01:16:43.306Z,0.00
2023-02-28T01:17:43.321Z,0.00
2023-02-28T01:18:43.273Z,0.00
2023-02-28T01:19:43.269Z,0.00
2023-02-28T01:20:43.252Z,0.00
2023-02-28T01:21:43.220Z,0.00
2023-02-28T01:22:43.228Z,0.00
2023-02-28T01:23:43.192Z,0.00
2023-02-28T01:24:43.221Z,0.00
2023-02-28T01:25:43.250Z,0.00
2023-02-28T01:26:43.167Z,0.00
2023-02-28T01:27:43.189Z,0.00
2023-02-28T01:28:43.160Z,0.00
2023-02-28T01:29:43.158Z,0.00
2023-02-28T01:30:43.186Z,0.00
2023-02-28T01:31:43.110Z,0.00
2023-02-28T01:32:43.086Z,0.00
2023-02-28T01:33:43.078Z,0.00
2023-02-28T01:34:43.088Z,0.00
2023-02-28T01:35:43.083Z,0.00
2023-02-28T01:36:43.046Z,0.00
2023-02-28T01:37:43.021Z,0.00
2023-02-28T01:38:43.037Z,0.00
2023-02-28T01:39:43.033Z,0.00
2023-02-28T01:40:43.001Z,0.00
2023-02-28T01:41:42.986Z,0.00
2023-02-28T01:42:42.981Z,0.00
2023-02-28T01:43:42.961Z,0.00
2023-02-28T01:44:42.960Z,0.00
2023-02-28T01:45:42.946Z,0.00
2023-02-28T01:46:42.964Z,0.00
2023-02-28T01:47:42.933Z,0.00
2023-02-28T01:48:42.931Z,0.00
2023-02-28T01:49:42.920Z,0.00
2023-02-28T01:50:42.862Z,0.00
2023-02-28T01:51:42.853Z,0.00
2023-02-28T01:52:42.858Z,0.00
2023-02-28T01:53:42.836Z,0.00
2023-02-28T01:54:42.828Z,0.00
2023-02-28T01:55:42.816Z,0.00
2023-02-28T01:56:42.823Z,0.00
2023-02-28T01:57:42.788Z,0.00
2023-02-28T01:58:42.763Z,0.00
2023-02-28T01:59:42.776Z,0.00
2023-02-28T02:00:42.760Z,0.00
2023-02-28T02:01:42.762Z,0.00
2023-02-28T02:02:42.745Z,0.00
2023-02-28T02:03:42.707Z,0.00
2023-02-28T02:04:42.688Z,0.00
2023-02-28T02:05:42.700Z,0.00
2023-02-28T02:06:42.668Z,0.00
2023-02-28T02:07:42.655Z,0.00
2023-02-28T02:08:42.645Z,0.00
2023-02-28T02:09:42.625Z,0.00
2023-02-28T02:10:42.609Z,0.00
2023-02-28T02:11:42.621Z,0.00
2023-02-28T02:12:42.581Z,0.00
2023-02-28T02:13:42.622Z,0.00
2023-02-28T02:14:42.555Z,0.00
2023-02-28T02:15:42.617Z,0.00
2023-02-28T02:16:42.554Z,0.00
2023-02-28T02:17:42.516Z,0.00
2023-02-28T02:18:42.512Z,0.00
2023-02-28T02:19:42.504Z,0.00
2023-02-28T02:20:42.496Z,0.00
2023-02-28T02:21:42.584Z,0.00
2023-02-28T02:22:42.487Z,0.00
2023-02-28T02:23:42.457Z,0.00
2023-02-28T02:24:42.421Z,0.00
2023-02-28T02:25:42.466Z,0.00
2023-02-28T02:26:42.429Z,0.00
2023-02-28T02:27:42.388Z,0.00
2023-02-28T02:28:42.421Z,0.00
2023-02-28T02:29:42.385Z,0.00
2023-02-28T02:30:42.369Z,0.00
2023-02-28T02:31:42.410Z,0.00
2023-02-28T02:32:42.330Z,0.00
2023-02-28T02:33:42.325Z,0.00
2023-02-28T02:34:42.359Z,0.00
2023-02-28T02:35:42.377Z,0.00
2023-02-28T02:36:42.300Z,0.00
2023-02-28T02:37:42.284Z,0.00
2023-02-28T02:38:42.277Z,0.00
2023-02-28T02:39:42.256Z,0.00
2023-02-28T02:40:42.253Z,0.00
2023-02-28T02:41:42.263Z,0.00
2023-02-28T02:42:42.217Z,0.00
2023-02-28T02:43:42.223Z,0.00
2023-02-28T02:44:42.203Z,0.00
2023-02-28T02:45:42.190Z,0.00
2023-02-28T02:46:42.268Z,0.00
2023-02-28T02:47:42.173Z,0.00
2023-02-28T02:48:42.176Z,0.00
2023-02-28T02:49:42.130Z,0.00
2023-02-28T02:50:49.159Z,0.00
2023-02-28T02:51:42.089Z,0.00
2023-02-28T02:52:42.095Z,0.00
2023-02-28T02:53:42.069Z,0.00
2023-02-28T02:54:42.090Z,0.00
2023-02-28T02:55:42.064Z,0.00
2023-02-28T02:56:42.033Z,0.00
2023-02-28T02:57:42.045Z,0.00
2023-02-28T02:58:42.024Z,0.00
2023-02-28T02:59:41.994Z,0.00
2023-02-28T03:00:42.013Z,0.00
2023-02-28T03:01:41.984Z,0.00
2023-02-28T03:02:41.965Z,0.00
2023-02-28T03:03:41.956Z,0.00
2023-02-28T03:04:41.932Z,0.00
2023-02-28T03:05:41.928Z,0.00
2023-02-28T03:06:41.930Z,0.00
2023-02-28T03:07:41.913Z,0.00
2023-02-28T03:08:41.886Z,0.00
2023-02-28T03:09:41.870Z,0.00
2023-02-28T03:10:41.875Z,0.00
2023-02-28T03:11:41.883Z,0.00
2023-02-28T03:12:41.842Z,0.00
2023-02-28T03:13:41.845Z,0.00
2023-02-28T03:14:41.821Z,0.00
2023-02-28T03:15:41.797Z,0.00
2023-02-28T03:16:41.802Z,0.00
2023-02-28T03:17:41.781Z,0.00
2023-02-28T03:18:41.772Z,0.00
2023-02-28T03:19:41.751Z,0.00
2023-02-28T03:20:41.756Z,0.00
2023-02-28T03:21:41.759Z,0.00
2023-02-28T03:22:41.731Z,0.00
2023-02-28T03:23:41.705Z,0.00
2023-02-28T03:24:41.680Z,0.00
2023-02-28T03:25:41.683Z,0.00
2023-02-28T03:26:41.673Z,0.00
2023-02-28T03:27:41.687Z,0.00
2023-02-28T03:28:41.654Z,0.00
2023-02-28T03:29:41.643Z,0.00
2023-02-28T03:30:41.627Z,0.00
2023-02-28T03:31:41.692Z,0.00
2023-02-28T03:32:41.624Z,0.00
2023-02-28T03:33:41.585Z,0.00
2023-02-28T03:34:41.571Z,0.00
2023-02-28T03:35:41.570Z,0.00
2023-02-28T03:36:41.564Z,0.00
2023-02-28T03:37:41.545Z,0.00
2023-02-28T03:38:41.523Z,0.00
2023-02-28T03:39:41.525Z,0.00
2023-02-28T03:40:41.492Z,0.00
2023-02-28T03:41:41.516Z,0.00
2023-02-28T03:42:41.494Z,0.00
2023-02-28T03:43:41.536Z,0.00
2023-02-28T03:44:41.475Z,0.00
2023-02-28T03:45:41.461Z,0.00
2023-02-28T03:46:41.431Z,0.00
2023-02-28T03:47:41.412Z,0.00
2023-02-28T03:48:41.409Z,0.00
2023-02-28T03:49:41.396Z,0.00
2023-02-28T03:50:41.396Z,0.00
2023-02-28T03:51:41.387Z,0.00
2023-02-28T03:52:41.374Z,0.00
2023-02-28T03:53:41.355Z,0.00
2023-02-28T03:54:41.356Z,0.00
2023-02-28T03:55:41.344Z,0.00
2023-02-28T03:56:41.316Z,0.00
2023-02-28T03:57:41.296Z,0.00
2023-02-28T03:58:41.284Z,0.00
2023-02-28T03:59:41.295Z,0.00
2023-02-28T04:00:41.280Z,0.00
2023-02-28T04:01:41.285Z,0.00
2023-02-28T04:02:41.264Z,0.00
2023-02-28T04:03:41.209Z,0.00
2023-02-28T04:04:41.256Z,0.00
2023-02-28T04:05:41.208Z,0.00
2023-02-28T04:06:41.188Z,0.00
2023-02-28T04:07:41.184Z,0.00
2023-02-28T04:08:41.165Z,0.00
2023-02-28T04:09:41.154Z,0.00
2023-02-28T04:10:41.162Z,0.00
2023-02-28T04:11:41.137Z,0.00
2023-02-28T04:12:41.113Z,0.00
2023-02-28T04:13:41.088Z,0.00
2023-02-28T04:14:41.077Z,0.00
2023-02-28T04:15:41.102Z,0.00
2023-02-28T04:16:41.124Z,0.00
2023-02-28T04:17:41.061Z,0.00
2023-02-28T04:18:41.049Z,0.00
2023-02-28T04:19:41.054Z,0.00
2023-02-28T04:20:40.999Z,0.00
2023-02-28T04:21:40.990Z,0.00
2023-02-28T04:22:40.985Z,0.00
2023-02-28T04:23:40.973Z,0.00
2023-02-28T04:24:40.981Z,0.00
2023-02-28T04:25:40.952Z,0.00
2023-02-28T04:26:40.932Z,0.00
2023-02-28T04:27:40.920Z,0.00
2023-02-28T04:28:40.916Z,0.00
2023-02-28T04:29:40.889Z,0.00
2023-02-28T04:30:40.917Z,0.00
2023-02-28T04:31:40.908Z,0.00
2023-02-28T04:32:40.942Z,0.00
2023-02-28T04:33:40.848Z,0.00
2023-02-28T04:34:40.834Z,0.00
2023-02-28T04:35:40.854Z,0.00
2023-02-28T04:36:40.820Z,0.00
2023-02-28T04:37:40.810Z,0.00
2023-02-28T04:38:40.810Z,0.00
2023-02-28T04:39:40.784Z,0.00
2023-02-28T04:40:40.773Z,0.00
2023-02-28T04:41:40.785Z,0.00
2023-02-28T04:42:40.729Z,0.00
2023-02-28T04:43:40.918Z,0.00
2023-02-28T04:44:40.708Z,0.00
2023-02-28T04:45:40.745Z,0.00
2023-02-28T04:46:40.675Z,0.00
2023-02-28T04:47:40.689Z,0.00
2023-02-28T04:48:40.655Z,0.00
2023-02-28T04:49:40.662Z,0.00
2023-02-28T04:50:40.646Z,0.00
2023-02-28T04:51:40.652Z,0.00
2023-02-28T04:52:40.616Z,0.00
2023-02-28T04:53:40.616Z,0.00
2023-02-28T04:54:40.580Z,0.00
2023-02-28T04:55:40.569Z,0.00
2023-02-28T04:56:40.586Z,0.00
2023-02-28T04:57:40.552Z,0.00
2023-02-28T04:58:40.566Z,0.00
2023-02-28T04:59:40.564Z,0.00
2023-02-28T05:00:40.514Z,0.00
2023-02-28T05:01:40.491Z,0.00
2023-02-28T05:02:40.484Z,0.00
2023-02-28T05:03:40.483Z,0.00
2023-02-28T05:04:40.550Z,0.00
2023-02-28T05:05:40.452Z,0.00
2023-02-28T05:06:40.440Z,0.00
2023-02-28T05:07:40.408Z,0.00
2023-02-28T05:08:40.432Z,0.00
2023-02-28T05:09:40.397Z,0.00
2023-02-28T05:10:40.418Z,0.00
2023-02-28T05:11:40.406Z,0.00
2023-02-28T05:12:40.365Z,0.00
2023-02-28T05:13:40.349Z,0.00
2023-02-28T05:14:40.343Z,0.00
2023-02-28T05:15:40.335Z,0.00
2023-02-28T05:16:40.340Z,0.00
2023-02-28T05:17:40.309Z,0.00
2023-02-28T05:18:40.292Z,0.00
2023-02-28T05:19:40.267Z,0.00
2023-02-28T05:20:40.286Z,0.00
2023-02-28T05:21:40.253Z,0.00
2023-02-28T05:22:40.242Z,0.00
2023-02-28T05:23:40.242Z,0.00
2023-02-28T05:24:40.213Z,4.00
2023-02-28T05:25:40.206Z,0.00
2023-02-28T05:26:40.184Z,0.00
2023-02-28T05:27:40.167Z,4.00
2023-02-28T05:28:40.179Z,4.00
2023-02-28T05:29:40.249Z,4.00
2023-02-28T05:30:40.127Z,4.00
2023-02-28T05:31:40.184Z,4.00
2023-02-28T05:32:40.174Z,4.00
2023-02-28T05:33:40.096Z,8.00
2023-02-28T05:34:40.087Z,8.00
2023-02-28T05:35:40.134Z,12.00
2023-02-28T05:36:40.079Z,12.00
2023-02-28T05:37:40.044Z,16.00
2023-02-28T05:38:40.065Z,16.00
2023-02-28T05:39:40.026Z,24.00
2023-02-28T05:40:40.047Z,24.00
2023-02-28T05:41:39.998Z,32.00
2023-02-28T05:42:40.002Z,36.00
2023-02-28T05:43:39.964Z,44.00
2023-02-28T05:44:39.956Z,48.00
2023-02-28T05:45:39.971Z,60.00
2023-02-28T05:46:39.954Z,72.00
2023-02-28T05:47:39.942Z,80.00
2023-02-28T05:48:39.992Z,92.00
2023-02-28T05:49:39.938Z,108.00
2023-02-28T05:50:39.874Z,120.00
2023-02-28T05:51:39.864Z,136.00
2023-02-28T05:52:39.865Z,156.00
2023-02-28T05:53:39.858Z,172.00
2023-02-28T05:54:39.825Z,196.00
2023-02-28T05:55:39.842Z,220.00
2023-02-28T05:56:39.831Z,244.00
2023-02-28T05:57:39.796Z,268.00
2023-02-28T05:58:39.803Z,296.00
2023-02-28T05:59:39.790Z,328.00
2023-02-28T06:00:42.094Z,352.00
2023-02-28T06:01:39.766Z,384.00
2023-02-28T06:02:39.798Z,420.00
2023-02-28T06:03:39.757Z,456.00
2023-02-28T06:04:39.742Z,488.00
2023-02-28T06:05:39.718Z,528.00
2023-02-28T06:06:39.693Z,564.00
2023-02-28T06:07:39.693Z,600.00
2023-02-28T06:08:39.701Z,640.00
2023-02-28T06:09:39.668Z,680.00
2023-02-28T06:10:39.650Z,724.00
2023-02-28T06:11:40.792Z,760.00
2023-02-28T06:12:39.630Z,804.00
2023-02-28T06:13:39.624Z,844.00
2023-02-28T06:14:39.601Z,888.00
2023-02-28T06:15:39.580Z,932.00
2023-02-28T06:16:39.642Z,980.00
2023-02-28T06:17:39.561Z,1020.00
2023-02-28T06:18:39.550Z,1060.00
2023-02-28T06:19:39.527Z,1108.00
2023-02-28T06:20:39.541Z,1148.00
2023-02-28T06:21:39.497Z,1192.00
2023-02-28T06:22:39.497Z,1236.00
2023-02-28T06:23:39.494Z,1280.00
2023-02-28T06:24:39.467Z,1320.00
2023-02-28T06:25:39.468Z,1368.00
2023-02-28T06:26:39.473Z,1408.00
2023-02-28T06:27:39.439Z,1452.00
2023-02-28T06:28:39.418Z,1496.00
2023-02-28T06:29:39.419Z,1540.00
2023-02-28T06:30:39.408Z,1580.00
2023-02-28T06:31:39.476Z,1620.00
2023-02-28T06:32:39.383Z,1664.00
2023-02-28T06:33:39.355Z,1704.00
2023-02-28T06:34:39.354Z,1744.00
2023-02-28T06:35:39.372Z,1784.00
2023-02-28T06:36:39.316Z,1824.00
2023-02-28T06:37:41.708Z,1864.00
2023-02-28T06:38:39.312Z,1904.00
2023-02-28T06:39:39.291Z,1940.00
2023-02-28T06:40:39.279Z,1980.00
2023-02-28T06:41:53.702Z,2016.00
2023-02-28T06:42:40.248Z,2052.00
2023-02-28T06:43:39.234Z,2088.00
2023-02-28T06:44:39.241Z,2124.00
2023-02-28T06:45:39.227Z,2164.00
2023-02-28T06:46:39.206Z,2196.00
2023-02-28T06:47:39.182Z,2232.00
2023-02-28T06:48:39.200Z,2268.00
2023-02-28T06:49:39.160Z,2300.00
2023-02-28T06:50:39.147Z,2336.00
2023-02-28T06:51:39.170Z,2364.00
2023-02-28T06:52:39.125Z,2396.00
2023-02-28T06:53:39.109Z,2424.00
2023-02-28T06:54:39.111Z,2460.00
2023-02-28T06:55:39.091Z,2492.00
2023-02-28T06:56:39.080Z,2520.00
2023-02-28T06:57:39.067Z,2552.00
2023-02-28T06:58:39.071Z,2580.00
2023-02-28T06:59:39.069Z,2608.00
2023-02-28T07:00:39.029Z,2636.00
2023-02-28T07:01:39.061Z,2668.00
2023-02-28T07:02:39.035Z,2696.00
2023-02-28T07:03:38.990Z,2724.00
2023-02-28T07:04:39.034Z,2748.00
2023-02-28T07:05:38.954Z,2776.00
2023-02-28T07:06:38.964Z,2804.00
2023-02-28T07:07:38.971Z,2832.00
2023-02-28T07:08:38.923Z,2856.00
2023-02-28T07:09:38.925Z,2880.00
2023-02-28T07:10:38.915Z,2908.00
2023-02-28T07:11:38.895Z,2936.00
2023-02-28T07:12:38.885Z,2960.00
2023-02-28T07:13:38.888Z,2988.00
2023-02-28T07:14:38.867Z,3012.00
2023-02-28T07:15:41.722Z,3036.00
2023-02-28T07:16:38.843Z,3060.00
2023-02-28T07:17:38.808Z,3084.00
2023-02-28T07:18:38.817Z,3108.00
2023-02-28T07:19:38.789Z,3132.00
2023-02-28T07:20:38.778Z,3152.00
2023-02-28T07:21:38.795Z,3172.00
2023-02-28T07:22:38.751Z,3192.00
2023-02-28T07:23:38.735Z,3208.00
2023-02-28T07:24:38.730Z,3228.00
2023-02-28T07:25:38.722Z,3244.00
2023-02-28T07:26:38.715Z,3264.00
2023-02-28T07:27:38.692Z,3284.00
2023-02-28T07:28:38.700Z,3300.00
2023-02-28T07:29:38.671Z,3320.00
2023-02-28T07:30:38.683Z,3336.00
2023-02-28T07:31:38.676Z,3356.00
2023-02-28T07:32:38.620Z,3372.00
2023-02-28T07:33:38.621Z,3388.00
2023-02-28T07:34:38.606Z,3408.00
2023-02-28T07:35:38.624Z,3424.00
2023-02-28T07:36:38.595Z,3436.00
2023-02-28T07:37:38.562Z,3452.00
2023-02-28T07:38:38.587Z,3472.00
2023-02-28T07:39:38.529Z,3488.00
2023-02-28T07:40:38.535Z,3500.00
2023-02-28T07:41:38.531Z,3516.00
2023-02-28T07:42:38.531Z,3528.00
2023-02-28T07:43:38.489Z,3548.00
2023-02-28T07:44:38.472Z,3564.00
2023-02-28T07:45:38.466Z,3576.00
2023-02-28T07:46:38.548Z,3596.00
2023-02-28T07:47:38.465Z,3608.00
2023-02-28T07:48:38.460Z,3624.00
2023-02-28T07:49:38.433Z,3632.00
2023-02-28T07:50:38.416Z,3648.00
2023-02-28T07:51:38.411Z,3660.00
2023-02-28T07:52:38.385Z,3668.00
2023-02-28T07:53:38.373Z,3688.00
2023-02-28T07:54:38.355Z,3692.00
2023-02-28T07:55:38.348Z,3704.00
2023-02-28T07:56:38.346Z,3720.00
2023-02-28T07:57:38.335Z,3728.00
2023-02-28T07:58:38.329Z,3740.00
2023-02-28T07:59:38.316Z,3752.00
2023-02-28T08:00:38.355Z,3764.00
2023-02-28T08:01:38.331Z,3772.00
2023-02-28T08:02:38.269Z,3788.00
2023-02-28T08:03:38.374Z,3800.00
2023-02-28T08:04:38.273Z,3800.00
2023-02-28T08:05:38.216Z,3816.00
2023-02-28T08:06:38.220Z,3824.00
2023-02-28T08:07:38.187Z,3824.00
2023-02-28T08:08:38.208Z,3836.00
2023-02-28T08:09:38.191Z,3844.00
2023-02-28T08:10:38.188Z,3852.00
2023-02-28T08:11:38.143Z,3860.00
2023-02-28T08:12:38.157Z,3868.00
2023-02-28T08:13:38.127Z,3872.00
2023-02-28T08:14:38.153Z,3880.00
2023-02-28T08:15:38.108Z,3888.00
2023-02-28T08:16:38.136Z,3896.00
2023-02-28T08:17:38.103Z,3900.00
2023-02-28T08:18:38.067Z,3908.00
2023-02-28T08:19:38.051Z,3912.00
2023-02-28T08:20:38.040Z,3924.00
2023-02-28T08:21:38.016Z,3928.00
2023-02-28T08:22:38.023Z,3936.00
2023-02-28T08:23:38.006Z,3940.00
2023-02-28T08:24:37.990Z,3948.00
2023-02-28T08:25:37.970Z,3952.00
2023-02-28T08:26:37.987Z,3964.00
2023-02-28T08:27:37.970Z,3968.00
2023-02-28T08:28:37.931Z,3972.00
2023-02-28T08:29:37.912Z,3980.00
2023-02-28T08:30:37.936Z,3988.00
2023-02-28T08:31:38.006Z,3996.00
2023-02-28T08:32:38.018Z,4004.00
2023-02-28T08:33:37.882Z,4008.00
2023-02-28T08:34:37.867Z,4016.00
2023-02-28T08:35:37.892Z,4008.00
2023-02-28T08:36:37.910Z,4016.00
2023-02-28T08:37:37.827Z,4024.00
2023-02-28T08:38:37.803Z,4032.00
2023-02-28T08:39:37.781Z,4032.00
2023-02-28T08:40:37.814Z,4036.00
2023-02-28T08:41:37.774Z,4036.00
2023-02-28T08:42:37.779Z,4044.00
2023-02-28T08:43:37.757Z,4048.00
2023-02-28T08:44:37.744Z,4052.00
2023-02-28T08:45:37.739Z,4056.00
2023-02-28T08:46:37.723Z,4060.00
2023-02-28T08:47:37.713Z,4064.00
2023-02-28T08:48:37.702Z,4068.00
2023-02-28T08:49:37.691Z,4068.00
2023-02-28T08:50:48.390Z,4076.00
2023-02-28T08:51:38.659Z,4080.00
2023-02-28T08:52:37.637Z,4080.00
2023-02-28T08:53:37.623Z,4088.00
2023-02-28T08:54:37.604Z,4088.00
2023-02-28T08:55:37.609Z,4088.00
2023-02-28T08:56:37.592Z,4092.00
2023-02-28T08:57:37.653Z,4096.00
2023-02-28T08:58:37.596Z,4096.00
2023-02-28T08:59:37.534Z,4096.00
2023-02-28T09:00:37.508Z,4104.00
2023-02-28T09:01:37.534Z,4116.00
2023-02-28T09:02:37.488Z,4128.00
2023-02-28T09:03:37.536Z,4140.00
2023-02-28T09:04:37.475Z,4144.00
2023-02-28T09:05:37.463Z,4160.00
2023-02-28T09:06:37.457Z,4164.00
2023-02-28T09:07:37.435Z,4180.00
2023-02-28T09:08:37.445Z,4180.00
2023-02-28T09:09:37.468Z,4192.00
2023-02-28T09:10:37.390Z,4200.00
2023-02-28T09:11:37.366Z,4216.00
2023-02-28T09:12:37.414Z,4224.00
2023-02-28T09:13:37.328Z,4236.00
2023-02-28T09:14:37.352Z,4244.00
2023-02-28T09:15:37.323Z,4260.00
2023-02-28T09:16:37.825Z,4260.00
2023-02-28T09:17:37.300Z,4272.00
2023-02-28T09:18:37.313Z,4292.00
2023-02-28T09:19:37.283Z,4308.00
2023-02-28T09:20:37.264Z,4316.00
2023-02-28T09:21:37.236Z,4324.00
2023-02-28T09:22:37.260Z,4332.00
2023-02-28T09:23:37.230Z,4332.00
2023-02-28T09:24:37.215Z,4348.00
2023-02-28T09:25:37.242Z,4352.00
2023-02-28T09:26:43.046Z,4356.00
2023-02-28T09:27:38.166Z,4364.00
2023-02-28T09:28:37.163Z,4380.00
2023-02-28T09:29:37.138Z,4380.00
2023-02-28T09:30:37.181Z,4400.00
2023-02-28T09:31:37.204Z,4408.00
2023-02-28T09:32:37.110Z,4420.00
2023-02-28T09:33:37.093Z,4436.00
2023-02-28T09:34:37.145Z,4444.00
2023-02-28T09:35:37.132Z,4448.00
2023-02-28T09:36:44.848Z,4456.00
2023-02-28T09:37:38.044Z,4456.00
2023-02-28T09:38:37.044Z,4456.00
2023-02-28T09:39:37.036Z,4468.00
2023-02-28T09:40:37.124Z,4472.00
2023-02-28T09:41:37.013Z,4468.00
2023-02-28T09:42:36.992Z,4460.00
2023-02-28T09:43:36.957Z,4476.00
2023-02-28T09:44:36.967Z,4476.00
2023-02-28T09:45:37.006Z,4476.00
2023-02-28T09:46:37.549Z,4484.00
2023-02-28T09:47:36.920Z,4476.00
2023-02-28T09:48:37.624Z,4488.00
2023-02-28T09:49:36.905Z,4476.00
2023-02-28T09:50:36.899Z,4476.00
2023-02-28T09:51:36.858Z,4484.00
2023-02-28T09:52:36.860Z,4488.00
2023-02-28T09:53:36.840Z,4504.00
2023-02-28T09:54:36.852Z,4516.00
2023-02-28T09:55:46.317Z,4516.00
2023-02-28T09:56:37.812Z,4524.00
2023-02-28T09:57:36.789Z,4532.00
2023-02-28T09:58:36.774Z,4536.00
2023-02-28T09:59:36.780Z,4548.00
2023-02-28T10:00:36.774Z,4548.00
2023-02-28T10:01:36.770Z,4556.00
2023-02-28T10:02:36.767Z,4564.00
2023-02-28T10:03:36.749Z,4556.00
2023-02-28T10:04:36.708Z,4564.00
2023-02-28T10:05:36.695Z,4560.00
2023-02-28T10:06:36.683Z,4568.00
2023-02-28T10:07:36.693Z,4576.00
2023-02-28T10:08:36.659Z,4584.00
2023-02-28T10:09:36.656Z,4592.00
2023-02-28T10:10:36.645Z,4600.00
2023-02-28T10:11:36.618Z,4604.00
2023-02-28T10:12:36.616Z,4620.00
2023-02-28T10:13:36.617Z,4628.00
2023-02-28T10:14:36.574Z,4640.00
2023-02-28T10:15:36.624Z,4648.00
2023-02-28T10:16:36.563Z,4644.00
2023-02-28T10:17:49.131Z,4640.00
2023-02-28T10:18:37.512Z,4656.00
2023-02-28T10:19:36.573Z,4660.00
2023-02-28T10:20:36.497Z,4660.00
2023-02-28T10:21:36.551Z,4664.00
2023-02-28T10:22:36.475Z,4672.00
2023-02-28T10:23:36.463Z,4668.00
2023-02-28T10:24:36.480Z,4672.00
2023-02-28T10:25:36.429Z,4676.00
2023-02-28T10:26:36.443Z,4688.00
2023-02-28T10:27:36.452Z,4692.00
2023-02-28T10:28:36.409Z,4688.00
2023-02-28T10:29:36.394Z,4696.00
2023-02-28T10:30:36.386Z,4692.00
2023-02-28T10:31:36.353Z,4700.00
2023-02-28T10:32:36.344Z,4704.00
2023-02-28T10:33:36.368Z,4700.00
2023-02-28T10:34:36.320Z,4696.00
2023-02-28T10:35:36.314Z,4696.00
2023-02-28T10:36:36.442Z,4696.00
2023-02-28T10:37:36.280Z,4696.00
2023-02-28T10:38:36.283Z,4696.00
2023-02-28T10:39:36.258Z,4696.00
2023-02-28T10:40:36.245Z,4696.00
2023-02-28T10:41:36.245Z,4696.00
2023-02-28T10:42:36.203Z,4696.00
2023-02-28T10:43:36.234Z,4696.00
2023-02-28T10:44:36.183Z,4688.00
2023-02-28T10:45:36.185Z,4684.00
2023-02-28T10:46:36.230Z,4684.00
2023-02-28T10:47:36.170Z,4684.00
2023-02-28T10:48:36.207Z,4684.00
2023-02-28T10:49:36.129Z,4680.00
2023-02-28T10:50:36.130Z,4684.00
2023-02-28T10:51:36.131Z,4688.00
2023-02-28T10:52:36.090Z,4692.00
2023-02-28T10:53:48.405Z,4688.00
2023-02-28T10:54:37.085Z,4692.00
2023-02-28T10:55:36.070Z,4692.00
2023-02-28T10:56:36.383Z,4692.00
2023-02-28T10:57:36.026Z,4700.00
2023-02-28T10:58:36.002Z,4700.00
2023-02-28T10:59:36.014Z,4704.00
2023-02-28T11:00:35.993Z,4708.00
2023-02-28T11:01:36.036Z,4720.00
2023-02-28T11:02:36.505Z,4740.00
2023-02-28T11:03:36.037Z,4756.00
2023-02-28T11:04:35.949Z,4768.00
2023-02-28T11:05:35.953Z,4772.00
2023-02-28T11:06:35.909Z,4768.00
2023-02-28T11:07:50.528Z,4776.00
2023-02-28T11:08:36.870Z,4776.00
2023-02-28T11:09:35.869Z,4772.00
2023-02-28T11:10:35.954Z,4764.00
2023-02-28T11:11:35.852Z,4764.00
2023-02-28T11:12:37.964Z,4756.00
2023-02-28T11:13:36.820Z,4752.00
2023-02-28T11:14:35.807Z,4756.00
2023-02-28T11:15:35.788Z,4760.00
2023-02-28T11:16:35.797Z,4760.00
2023-02-28T11:17:35.766Z,4760.00
2023-02-28T11:18:35.753Z,4760.00
2023-02-28T11:19:35.725Z,4760.00
2023-02-28T11:20:35.759Z,4756.00
2023-02-28T11:21:35.761Z,4752.00
2023-02-28T11:22:35.700Z,4744.00
2023-02-28T11:23:37.853Z,4744.00
2023-02-28T11:24:35.681Z,4736.00
2023-02-28T11:25:35.646Z,4732.00
2023-02-28T11:26:35.645Z,4732.00
2023-02-28T11:27:35.661Z,4732.00
2023-02-28T11:28:35.606Z,4732.00
2023-02-28T11:29:35.595Z,4736.00
2023-02-28T11:30:35.607Z,4732.00
2023-02-28T11:31:35.598Z,4736.00
2023-02-28T11:32:35.642Z,4736.00
2023-02-28T11:33:35.568Z,4732.00
2023-02-28T11:34:35.545Z,4736.00
2023-02-28T11:35:35.643Z,4736.00
2023-02-28T11:36:35.519Z,4736.00
2023-02-28T11:37:35.516Z,4732.00
2023-02-28T11:38:35.505Z,4736.00
2023-02-28T11:39:35.478Z,4740.00
2023-02-28T11:40:35.466Z,4736.00
2023-02-28T11:41:35.468Z,4732.00
2023-02-28T11:42:35.443Z,4728.00
2023-02-28T11:43:35.448Z,4732.00
2023-02-28T11:44:35.403Z,4728.00
2023-02-28T11:45:35.407Z,4728.00
2023-02-28T11:46:35.425Z,4736.00
2023-02-28T11:47:35.388Z,4740.00
2023-02-28T11:48:35.344Z,4752.00
2023-02-28T11:49:35.355Z,4764.00
2023-02-28T11:50:35.333Z,4776.00
2023-02-28T11:51:35.338Z,4780.00
2023-02-28T11:52:35.313Z,4784.00
2023-02-28T11:53:35.286Z,4792.00
2023-02-28T11:54:35.315Z,4808.00
2023-02-28T11:55:35.290Z,4808.00
2023-02-28T11:56:35.260Z,4808.00
2023-02-28T11:57:35.238Z,4808.00
2023-02-28T11:58:35.239Z,4804.00
2023-02-28T11:59:35.224Z,4796.00
2023-02-28T12:00:35.233Z,4784.00
2023-02-28T12:01:35.195Z,4788.00
2023-02-28T12:02:35.246Z,4792.00
2023-02-28T12:03:35.212Z,4788.00
2023-02-28T12:04:35.151Z,4788.00
2023-02-28T12:05:35.162Z,4776.00
2023-02-28T12:06:35.155Z,4768.00
2023-02-28T12:07:35.156Z,4760.00
2023-02-28T12:08:35.117Z,4740.00
2023-02-28T12:09:35.128Z,4728.00
2023-02-28T12:10:35.083Z,4712.00
2023-02-28T12:11:35.107Z,4712.00
2023-02-28T12:12:35.064Z,4704.00
2023-02-28T12:13:35.044Z,4688.00
2023-02-28T12:14:35.042Z,4676.00
2023-02-28T12:15:35.031Z,4672.00
2023-02-28T12:16:35.052Z,4660.00
2023-02-28T12:17:35.069Z,4644.00
2023-02-28T12:18:34.998Z,4640.00
2023-02-28T12:19:34.992Z,4624.00
2023-02-28T12:20:34.962Z,4628.00
2023-02-28T12:21:34.961Z,4628.00
2023-02-28T12:22:34.975Z,4616.00
2023-02-28T12:23:34.931Z,4616.00
2023-02-28T12:24:34.912Z,4620.00
2023-02-28T12:25:34.919Z,4620.00
2023-02-28T12:26:34.889Z,4624.00
2023-02-28T12:27:34.918Z,4632.00
2023-02-28T12:28:34.857Z,4640.00
2023-02-28T12:29:34.845Z,4624.00
2023-02-28T12:30:34.852Z,4616.00
2023-02-28T12:31:34.877Z,4608.00
2023-02-28T12:32:34.893Z,4608.00
2023-02-28T12:33:34.816Z,4608.00
2023-02-28T12:34:34.787Z,4600.00
2023-02-28T12:35:34.814Z,4608.00
2023-02-28T12:36:34.742Z,4604.00
2023-02-28T12:37:34.765Z,4612.00